createdAt,value
2018-11-27T00:00:15.457Z,79.80
2018-11-27T00:02:44.322Z,79.60
2018-11-27T00:05:13.020Z,79.50
2018-11-27T00:07:56.516Z,79.00
2018-11-27T00:10:25.501Z,78.80
2018-11-27T00:12:54.090Z,79.00
2018-11-27T00:15:22.717Z,79.70
2018-11-27T00:17:51.461Z,79.20
2018-11-27T00:20:20.078Z,79.10
2018-11-27T00:22:48.925Z,79.20
2018-11-27T00:25:18.367Z,79.70
2018-11-27T00:27:46.983Z,79.50
2018-11-27T00:30:17.367Z,79.50
2018-11-27T00:32:46.012Z,79.70
2018-11-27T00:35:15.881Z,79.70
2018-11-27T00:37:44.652Z,79.80
2018-11-27T00:40:17.849Z,79.70
2018-11-27T00:42:46.639Z,80.40
2018-11-27T00:45:16.247Z,81.00
2018-11-27T00:47:45.722Z,80.40
2018-11-27T00:50:16.477Z,80.20
2018-11-27T00:52:45.173Z,79.90
2018-11-27T00:55:14.719Z,79.50
2018-11-27T00:57:44.058Z,79.70
2018-11-27T01:00:18.599Z,80.00
2018-11-27T01:02:47.573Z,79.70
2018-11-27T01:05:17.290Z,79.80
2018-11-27T01:07:45.934Z,79.60
2018-11-27T01:10:19.502Z,80.40
2018-11-27T01:12:48.144Z,80.10
2018-11-27T01:15:16.936Z,80.40
2018-11-27T01:17:48.120Z,80.20
2018-11-27T01:20:19.798Z,80.30
2018-11-27T01:22:48.374Z,80.80
2018-11-27T01:25:17.012Z,80.50
2018-11-27T01:27:45.621Z,80.80
2018-11-27T01:30:16.904Z,80.40
2018-11-27T01:32:45.675Z,80.00
2018-11-27T01:35:16.326Z,80.50
2018-11-27T01:37:45.081Z,80.00
2018-11-27T01:40:17.398Z,79.80
2018-11-27T01:42:46.779Z,80.10
2018-11-27T01:45:17.064Z,80.10
2018-11-27T01:47:45.977Z,80.00
2018-11-27T01:50:15.298Z,80.30
2018-11-27T01:52:43.919Z,80.40
2018-11-27T01:55:13.433Z,79.90
2018-11-27T01:57:42.102Z,80.50
2018-11-27T02:00:17.194Z,79.90
2018-11-27T02:02:45.811Z,79.60
2018-11-27T02:05:15.002Z,79.50
2018-11-27T02:07:43.631Z,78.90
2018-11-27T02:10:12.887Z,79.20
2018-11-27T02:12:42.902Z,79.40
2018-11-27T02:15:13.288Z,79.80
2018-11-27T02:17:41.897Z,79.80
2018-11-27T02:20:11.318Z,79.90
2018-11-27T02:22:40.282Z,79.80
2018-11-27T02:25:20.119Z,79.60
2018-11-27T02:27:48.733Z,79.50
2018-11-27T02:30:18.494Z,79.80
2018-11-27T02:32:47.196Z,80.20
2018-11-27T02:35:16.704Z,79.20
2018-11-27T02:37:45.611Z,79.40
2018-11-27T02:40:15.082Z,79.80
2018-11-27T02:42:43.670Z,79.40
2018-11-27T02:45:16.906Z,79.30
2018-11-27T02:47:45.997Z,79.30
2018-11-27T02:50:15.878Z,79.50
2018-11-27T02:52:44.517Z,79.60
2018-11-27T02:55:15.279Z,80.00
2018-11-27T02:57:45.761Z,80.10
2018-11-27T03:00:15.386Z,80.00
2018-11-27T03:02:44.330Z,80.20
2018-11-27T03:05:17.046Z,80.40
2018-11-27T03:07:45.681Z,80.10
2018-11-27T03:10:14.991Z,79.90
2018-11-27T03:12:43.611Z,80.20
2018-11-27T03:15:16.110Z,80.60
2018-11-27T03:17:45.045Z,80.90
2018-11-27T03:20:16.475Z,81.40
2018-11-27T03:22:45.081Z,81.50
2018-11-27T03:25:18.420Z,81.80
2018-11-27T03:27:48.538Z,81.90
2018-11-27T03:30:18.444Z,82.70
2018-11-27T03:32:47.139Z,83.00
2018-11-27T03:35:17.273Z,83.50
2018-11-27T03:37:47.370Z,83.60
2018-11-27T03:40:18.575Z,83.70
2018-11-27T03:42:47.558Z,84.10
2018-11-27T03:45:16.650Z,84.20
2018-11-27T03:47:45.559Z,84.20
2018-11-27T03:50:18.318Z,84.20
2018-11-27T03:52:46.952Z,84.40
2018-11-27T03:55:15.542Z,84.70
2018-11-27T03:57:44.269Z,84.60
2018-11-27T04:00:16.783Z,84.00
2018-11-27T04:02:48.619Z,84.70
2018-11-27T04:05:17.233Z,85.70
2018-11-27T04:07:45.862Z,85.60
2018-11-27T04:10:15.753Z,85.40
2018-11-27T04:12:44.505Z,85.70
2018-11-27T04:15:13.364Z,85.90
2018-11-27T04:17:42.264Z,85.80
2018-11-27T04:25:11.598Z,86.00
2018-11-27T04:27:40.300Z,86.30
2018-11-27T04:30:11.014Z,86.60
2018-11-27T04:32:39.696Z,86.70
2018-11-27T04:35:09.185Z,86.80
2018-11-27T04:37:37.808Z,86.30
2018-11-27T04:40:08.671Z,86.90
2018-11-27T04:42:37.578Z,86.90
2018-11-27T04:45:11.004Z,87.70
2018-11-27T04:47:39.692Z,87.00
2018-11-27T04:50:10.417Z,88.20
2018-11-27T04:52:39.035Z,87.00
2018-11-27T04:55:11.742Z,87.00
2018-11-27T04:57:40.926Z,87.10
2018-11-27T05:00:20.037Z,87.30
2018-11-27T05:02:48.726Z,87.40
2018-11-27T05:05:18.613Z,88.10
2018-11-27T05:07:47.317Z,87.80
2018-11-27T05:10:19.090Z,87.90
2018-11-27T05:12:47.734Z,88.00
2018-11-27T05:15:20.038Z,88.20
2018-11-27T05:17:49.721Z,88.20
2018-11-27T05:20:18.334Z,88.70
2018-11-27T05:22:47.195Z,89.30
2018-11-27T05:25:16.923Z,89.30
2018-11-27T05:27:49.289Z,89.50
2018-11-27T05:30:19.847Z,89.30
2018-11-27T05:32:48.689Z,89.60
2018-11-27T05:35:20.114Z,89.20
2018-11-27T05:37:49.988Z,88.90
2018-11-27T05:40:20.130Z,89.30
2018-11-27T05:42:57.744Z,89.60
2018-11-27T05:45:28.298Z,90.00
2018-11-27T05:47:57.098Z,90.10
2018-11-27T05:50:25.756Z,90.20
2018-11-27T05:52:54.382Z,90.10
2018-11-27T05:55:23.041Z,90.00
2018-11-27T05:57:53.245Z,90.10
2018-11-27T06:00:24.019Z,90.70
2018-11-27T06:02:55.810Z,90.20
2018-11-27T06:05:24.569Z,89.90
2018-11-27T06:07:53.202Z,90.00
2018-11-27T06:10:22.496Z,89.80
2018-11-27T06:12:51.243Z,89.60
2018-11-27T06:15:21.736Z,89.60
2018-11-27T06:17:52.295Z,89.50
2018-11-27T06:20:21.672Z,89.20
2018-11-27T06:22:50.561Z,89.10
2018-11-27T06:25:22.237Z,89.30
2018-11-27T06:27:52.510Z,89.00
2018-11-27T06:30:23.234Z,89.70
2018-11-27T06:32:52.207Z,89.50
2018-11-27T06:35:22.156Z,89.70
2018-11-27T06:37:51.129Z,89.80
2018-11-27T06:40:21.985Z,89.70
2018-11-27T06:42:51.023Z,90.00
2018-11-27T06:45:20.326Z,89.90
2018-11-27T06:47:49.774Z,89.80
2018-11-27T06:50:18.856Z,90.00
2018-11-27T06:52:47.479Z,89.70
2018-11-27T06:55:18.057Z,89.50
2018-11-27T06:57:47.960Z,89.70
2018-11-27T07:00:23.786Z,89.70
2018-11-27T07:02:52.502Z,89.40
2018-11-27T07:05:21.367Z,89.10
2018-11-27T07:07:49.992Z,89.40
2018-11-27T07:10:27.144Z,89.40
2018-11-27T07:13:01.358Z,89.50
2018-11-27T07:15:30.006Z,89.60
2018-11-27T07:17:58.606Z,89.50
2018-11-27T07:20:27.294Z,89.00
2018-11-27T07:22:55.950Z,88.90
2018-11-27T07:25:24.564Z,88.90
2018-11-27T07:27:53.197Z,88.90
2018-11-27T07:30:23.181Z,88.50
2018-11-27T07:32:51.886Z,88.50
2018-11-27T07:35:20.694Z,88.80
2018-11-27T07:37:49.482Z,89.10
2018-11-27T07:40:23.093Z,88.60
2018-11-27T07:42:53.111Z,88.50
2018-11-27T07:45:22.558Z,88.20
2018-11-27T07:47:51.474Z,88.00
2018-11-27T07:50:20.186Z,88.30
2018-11-27T07:52:48.801Z,88.00
2018-11-27T07:55:20.741Z,88.00
2018-11-27T07:57:50.225Z,88.20
2018-11-27T08:00:22.196Z,87.50
2018-11-27T08:02:52.789Z,87.20
2018-11-27T08:05:23.885Z,87.40
2018-11-27T08:07:53.555Z,86.80
2018-11-27T08:10:23.189Z,86.50
2018-11-27T08:12:51.838Z,87.00
2018-11-27T08:15:22.827Z,87.30
2018-11-27T08:17:51.463Z,87.20
2018-11-27T08:20:21.657Z,86.50
2018-11-27T08:22:50.288Z,86.50
2018-11-27T08:25:18.961Z,86.60
2018-11-27T08:27:47.622Z,86.10
2018-11-27T08:30:18.261Z,86.20
2018-11-27T08:32:46.950Z,86.10
2018-11-27T08:35:18.593Z,86.60
2018-11-27T08:37:47.944Z,86.90
2018-11-27T08:40:17.490Z,85.90
2018-11-27T08:42:46.802Z,85.50
2018-11-27T08:45:17.292Z,85.30
2018-11-27T08:47:46.661Z,85.40
2018-11-27T08:50:19.437Z,84.90
2018-11-27T08:52:50.138Z,84.50
2018-11-27T08:55:20.894Z,84.30
2018-11-27T08:57:49.637Z,83.90
2018-11-27T09:00:19.275Z,84.00
2018-11-27T09:02:47.957Z,83.90
2018-11-27T09:05:16.657Z,83.60
2018-11-27T09:07:45.662Z,83.30
2018-11-27T09:10:18.199Z,83.70
2018-11-27T09:12:46.818Z,83.30
2018-11-27T09:15:17.484Z,82.70
2018-11-27T09:18:19.143Z,82.20
2018-11-27T09:20:47.757Z,81.40
2018-11-27T09:23:16.418Z,81.10
2018-11-27T09:25:45.048Z,81.00
2018-11-27T09:28:13.746Z,81.30
2018-11-27T09:30:42.882Z,80.60
2018-11-27T09:33:11.534Z,80.00
2018-11-27T09:35:40.162Z,79.70
2018-11-27T09:38:08.898Z,79.20
2018-11-27T09:40:37.529Z,79.20
2018-11-27T09:43:07.037Z,79.10
2018-11-27T09:45:36.791Z,79.30
2018-11-27T09:48:05.418Z,79.00
2018-11-27T09:50:34.052Z,78.10
2018-11-27T09:53:02.847Z,78.20
2018-11-27T09:55:31.593Z,78.20
2018-11-27T09:58:00.613Z,78.30
2018-11-27T10:00:30.741Z,78.10
2018-11-27T10:03:01.713Z,77.70
2018-11-27T10:05:30.737Z,78.50
2018-11-27T10:07:59.425Z,77.20
2018-11-27T10:10:28.072Z,77.60
2018-11-27T10:12:56.688Z,76.90
2018-11-27T10:15:26.292Z,77.30
2018-11-27T10:17:55.958Z,76.90
2018-11-27T10:20:25.757Z,77.00
2018-11-27T10:22:54.393Z,76.60
2018-11-27T10:25:23.657Z,77.60
2018-11-27T10:27:52.309Z,76.30
2018-11-27T10:30:24.208Z,76.30
2018-11-27T10:32:53.961Z,76.10
2018-11-27T10:35:30.522Z,76.70
2018-11-27T10:37:59.141Z,75.60
2018-11-27T10:40:27.752Z,75.90
2018-11-27T10:42:56.401Z,76.00
2018-11-27T10:45:25.055Z,75.20
2018-11-27T10:47:55.349Z,74.70
2018-11-27T10:50:24.164Z,74.60
2018-11-27T10:52:54.783Z,73.40
2018-11-27T10:55:24.265Z,74.30
2018-11-27T10:57:52.898Z,75.00
2018-11-27T11:00:27.745Z,75.00
2018-11-27T11:03:00.978Z,75.20
2018-11-27T11:05:31.321Z,75.90
2018-11-27T11:07:59.978Z,73.90
2018-11-27T11:10:28.600Z,73.20
2018-11-27T11:12:57.258Z,73.40
2018-11-27T11:15:26.014Z,73.60
2018-11-27T11:17:54.682Z,74.40
2018-11-27T11:20:23.925Z,73.90
2018-11-27T11:22:52.632Z,73.80
2018-11-27T11:25:22.985Z,74.20
2018-11-27T11:27:56.002Z,74.00
2018-11-27T11:30:26.296Z,74.50
2018-11-27T11:32:54.921Z,73.90
2018-11-27T11:35:23.532Z,73.50
2018-11-27T11:37:54.020Z,74.10
2018-11-27T11:40:23.887Z,74.40
2018-11-27T11:42:56.506Z,75.10
2018-11-27T11:45:25.270Z,75.50
2018-11-27T11:47:53.882Z,76.10
2018-11-27T11:50:24.626Z,75.90
2018-11-27T11:53:02.461Z,75.80
2018-11-27T11:55:31.530Z,76.60
2018-11-27T11:58:00.180Z,76.30
2018-11-27T12:00:31.019Z,76.00
2018-11-27T12:02:59.645Z,75.10
2018-11-27T12:05:28.377Z,74.80
2018-11-27T12:07:56.991Z,74.60
2018-11-27T12:10:25.655Z,73.70
2018-11-27T12:12:54.314Z,74.40
2018-11-27T12:15:22.938Z,73.80
2018-11-27T12:17:52.492Z,73.80
2018-11-27T12:20:21.313Z,73.70
2018-11-27T12:22:51.727Z,74.30
2018-11-27T12:25:24.254Z,74.10
2018-11-27T12:27:49.054Z,74.00
2018-11-27T12:30:23.397Z,74.70
2018-11-27T12:32:52.853Z,75.00
2018-11-27T12:35:22.043Z,75.30
2018-11-27T12:37:50.825Z,75.40
2018-11-27T12:40:23.555Z,76.00
2018-11-27T12:42:53.482Z,76.30
2018-11-27T12:45:27.386Z,75.60
2018-11-27T12:47:57.453Z,75.00
2018-11-27T12:50:44.049Z,75.80
2018-11-27T12:53:16.706Z,75.30
2018-11-27T12:55:43.545Z,75.60
2018-11-27T12:58:12.169Z,75.80
2018-11-27T13:00:40.808Z,75.80
2018-11-27T13:03:09.507Z,75.80
2018-11-27T13:05:40.415Z,76.70
2018-11-27T13:08:16.297Z,76.50
2018-11-27T13:10:44.929Z,76.30
2018-11-27T13:13:13.568Z,76.00
2018-11-27T13:15:42.866Z,76.90
2018-11-27T13:18:11.517Z,77.20
2018-11-27T13:20:40.669Z,77.00
2018-11-27T13:23:09.336Z,77.30
2018-11-27T13:25:38.425Z,77.40
2018-11-27T13:28:08.351Z,77.80
2018-11-27T13:30:50.920Z,77.50
2018-11-27T13:33:21.367Z,77.70
2018-11-27T13:35:49.951Z,77.50
2018-11-27T13:38:18.555Z,77.20
2018-11-27T13:40:47.181Z,77.20
2018-11-27T13:43:22.049Z,77.10
2018-11-27T13:45:50.669Z,77.40
2018-11-27T13:48:19.390Z,78.00
2018-11-27T13:50:48.022Z,77.90
2018-11-27T13:53:16.632Z,77.40
2018-11-27T13:55:45.267Z,77.50
2018-11-27T13:58:14.101Z,77.80
2018-11-27T14:00:42.701Z,78.00
2018-11-27T14:03:11.346Z,77.50
2018-11-27T14:05:40.162Z,77.10
2018-11-27T14:08:09.585Z,77.10
2018-11-27T14:10:38.825Z,77.60
2018-11-27T14:13:08.885Z,76.70
2018-11-27T14:15:37.721Z,76.80
2018-11-27T14:18:06.970Z,76.60
2018-11-27T14:20:35.714Z,76.70
2018-11-27T14:23:04.511Z,76.80
2018-11-27T14:25:33.129Z,76.60
2018-11-27T14:28:01.755Z,76.80
2018-11-27T14:30:31.005Z,77.20
2018-11-27T14:32:59.649Z,76.30
2018-11-27T14:35:28.442Z,76.30
2018-11-27T14:37:57.381Z,76.70
2018-11-27T14:40:26.926Z,77.30
2018-11-27T14:42:55.614Z,77.20
2018-11-27T14:45:25.271Z,77.70
2018-11-27T14:47:55.149Z,78.10
2018-11-27T14:50:23.758Z,78.30
2018-11-27T14:52:54.677Z,78.60
2018-11-27T14:55:25.258Z,78.90
2018-11-27T14:57:54.063Z,78.60
2018-11-27T15:00:23.613Z,78.60
2018-11-27T15:02:52.557Z,78.00
2018-11-27T15:05:23.933Z,78.00
2018-11-27T15:07:52.551Z,78.50
2018-11-27T15:10:21.163Z,78.90
2018-11-27T15:12:49.814Z,78.70
2018-11-27T15:15:18.424Z,79.20
2018-11-27T15:17:47.044Z,79.40
2018-11-27T15:20:19.750Z,78.90
2018-11-27T15:22:48.522Z,78.30
2018-11-27T15:25:17.262Z,78.00
2018-11-27T15:27:46.307Z,77.40
2018-11-27T15:30:18.054Z,77.70
2018-11-27T15:32:49.714Z,77.70
2018-11-27T15:35:18.613Z,78.20
2018-11-27T15:37:47.247Z,78.50
2018-11-27T15:40:21.312Z,78.30
2018-11-27T15:42:50.390Z,78.40
2018-11-27T15:45:22.909Z,78.30
2018-11-27T15:47:51.553Z,78.80
2018-11-27T15:50:20.871Z,78.20
2018-11-27T15:52:49.565Z,78.00
2018-11-27T15:55:32.677Z,78.30
2018-11-27T15:58:08.966Z,78.20
2018-11-27T16:00:37.766Z,78.10
2018-11-27T16:03:06.955Z,78.10
2018-11-27T16:05:36.427Z,78.20
2018-11-27T16:08:05.576Z,78.10
2018-11-27T16:10:34.215Z,78.20
2018-11-27T16:13:05.540Z,78.40
2018-11-27T16:15:34.680Z,78.40
2018-11-27T16:18:03.324Z,78.20
2018-11-27T16:20:32.166Z,78.50
2018-11-27T16:23:00.757Z,78.30
2018-11-27T16:25:29.662Z,78.50
2018-11-27T16:27:58.396Z,78.80
2018-11-27T16:30:28.437Z,79.00
2018-11-27T16:32:57.058Z,79.10
2018-11-27T16:35:25.688Z,79.40
2018-11-27T16:37:58.116Z,80.00
2018-11-27T16:40:29.054Z,79.10
2018-11-27T16:42:57.698Z,78.40
2018-11-27T16:45:26.346Z,78.00
2018-11-27T16:47:55.115Z,78.30
2018-11-27T16:50:23.785Z,77.70
2018-11-27T16:52:52.415Z,77.50
2018-11-27T16:55:21.918Z,78.10
2018-11-27T16:57:50.740Z,78.10
2018-11-27T17:00:29.709Z,78.60
2018-11-27T17:02:59.543Z,78.90
2018-11-27T17:05:31.399Z,79.30
2018-11-27T17:08:00.294Z,80.00
2018-11-27T17:10:29.816Z,80.30
2018-11-27T17:12:58.625Z,80.20
2018-11-27T17:15:27.817Z,79.90
2018-11-27T17:17:56.545Z,80.90
2018-11-27T17:20:27.994Z,79.90
2018-11-27T17:23:00.022Z,80.70
2018-11-27T17:25:29.095Z,80.90
2018-11-27T17:28:01.290Z,80.90
2018-11-27T17:30:40.261Z,81.00
2018-11-27T17:33:14.217Z,80.90
2018-11-27T17:35:42.851Z,80.90
2018-11-27T17:38:11.476Z,81.00
2018-11-27T17:40:40.173Z,82.20
2018-11-27T17:43:08.819Z,81.20
2018-11-27T17:45:37.457Z,81.50
2018-11-27T17:48:06.299Z,81.80
2018-11-27T17:50:35.241Z,81.80
2018-11-27T17:53:03.905Z,82.40
2018-11-27T17:55:32.627Z,82.40
2018-11-27T17:58:01.209Z,82.60
2018-11-27T18:00:31.026Z,82.20
2018-11-27T18:03:02.238Z,81.70
2018-11-27T18:05:31.053Z,81.80
2018-11-27T18:08:00.904Z,81.90
2018-11-27T18:10:29.624Z,81.70
2018-11-27T18:12:58.277Z,82.10
2018-11-27T18:15:26.975Z,81.50
2018-11-27T18:17:55.586Z,81.70
2018-11-27T18:20:24.354Z,81.70
2018-11-27T18:22:53.030Z,82.10
2018-11-27T18:25:21.650Z,81.90
2018-11-27T18:27:51.505Z,82.10
2018-11-27T18:30:21.738Z,81.50
2018-11-27T18:32:50.561Z,81.50
2018-11-27T18:35:21.179Z,82.00
2018-11-27T18:37:51.102Z,81.70
2018-11-27T18:40:20.139Z,81.90
2018-11-27T18:42:49.165Z,81.90
2018-11-27T18:45:20.978Z,81.10
2018-11-27T18:47:49.740Z,81.60
2018-11-27T18:50:18.463Z,81.80
2018-11-27T18:52:47.755Z,81.90
2018-11-27T18:55:16.718Z,82.20
2018-11-27T18:57:46.101Z,81.50
2018-11-27T19:00:18.084Z,81.30
2018-11-27T19:02:46.846Z,81.20
2018-11-27T19:05:15.545Z,81.30
2018-11-27T19:07:44.286Z,81.70
2018-11-27T19:10:31.705Z,81.00
2018-11-27T19:13:00.734Z,81.20
2018-11-27T19:15:44.629Z,82.20
2018-11-27T19:18:23.453Z,81.20
2018-11-27T19:20:52.420Z,82.10
2018-11-27T19:23:22.393Z,81.60
2018-11-27T19:25:51.421Z,82.00
2018-11-27T19:28:20.334Z,81.80
2018-11-27T19:30:49.263Z,81.70
2018-11-27T19:33:18.013Z,81.90
2018-11-27T19:35:46.662Z,82.00
2018-11-27T19:38:16.681Z,81.90
2018-11-27T19:40:45.594Z,81.40
2018-11-27T19:46:13.707Z,81.30
2018-11-27T19:49:12.981Z,80.90
2018-11-27T19:51:42.903Z,81.80
2018-11-27T19:54:11.665Z,82.60
2018-11-27T19:56:42.330Z,82.90
2018-11-27T19:59:13.031Z,82.60
2018-11-27T20:01:41.885Z,82.80
2018-11-27T20:04:10.751Z,82.90
2018-11-27T20:06:39.718Z,82.50
2018-11-27T20:09:08.990Z,82.60
2018-11-27T20:11:37.701Z,82.80
2018-11-27T20:14:06.338Z,83.20
2018-11-27T20:16:36.046Z,83.70
2018-11-27T20:19:05.299Z,83.60
2018-11-27T20:21:33.974Z,83.40
2018-11-27T20:24:02.641Z,83.40
2018-11-27T20:26:34.159Z,83.20
2018-11-27T20:29:03.133Z,83.60
2018-11-27T20:31:31.722Z,84.60
2018-11-27T20:34:00.426Z,85.10
2018-11-27T20:36:29.085Z,85.30
2018-11-27T20:38:57.725Z,85.60
2018-11-27T20:41:26.369Z,86.00
2018-11-27T20:43:55.207Z,86.00
2018-11-27T20:48:53.171Z,85.60
2018-11-27T20:51:21.910Z,84.90
2018-11-27T20:53:50.574Z,85.00
2018-11-27T20:56:19.297Z,85.10
2018-11-27T20:58:47.928Z,85.00
2018-11-27T21:01:16.592Z,85.00
2018-11-27T21:03:45.230Z,85.10
2018-11-27T21:06:13.997Z,85.40
2018-11-27T21:08:42.815Z,85.70
2018-11-27T21:11:11.424Z,85.80
2018-11-27T21:13:40.118Z,85.70
2018-11-27T21:16:08.794Z,85.50
2018-11-27T21:18:37.746Z,85.60
2018-11-27T21:21:06.935Z,85.50
2018-11-27T21:23:36.186Z,85.60
2018-11-27T21:26:04.830Z,85.40
2018-11-27T21:28:33.921Z,85.20
2018-11-27T21:31:03.485Z,85.10
2018-11-27T21:33:32.332Z,85.10
2018-11-27T21:36:00.951Z,85.10
2018-11-27T21:38:29.606Z,84.80
2018-11-27T21:40:58.225Z,84.70
2018-11-27T21:43:27.038Z,84.30
2018-11-27T21:45:55.703Z,84.10
2018-11-27T21:48:24.327Z,84.00
2018-11-27T21:50:52.958Z,84.60
2018-11-27T21:53:21.578Z,83.90
2018-11-27T21:55:50.578Z,83.80
2018-11-27T21:58:19.462Z,83.90
2018-11-27T22:00:48.117Z,84.00
2018-11-27T22:03:16.722Z,84.40
2018-11-27T22:05:45.561Z,84.10
2018-11-27T22:08:14.210Z,84.40
2018-11-27T22:10:42.855Z,85.10
2018-11-27T22:13:12.963Z,85.20
2018-11-27T22:15:42.833Z,85.30
2018-11-27T22:18:12.568Z,85.30
2018-11-27T22:20:41.214Z,85.30
2018-11-27T22:23:10.106Z,85.80
2018-11-27T22:25:38.957Z,85.70
2018-11-27T22:28:08.257Z,85.70
2018-11-27T22:30:37.577Z,85.50
2018-11-27T22:33:07.693Z,85.30
2018-11-27T22:35:36.405Z,85.20
2018-11-27T22:38:05.942Z,85.30
2018-11-27T22:40:34.851Z,85.60
2018-11-27T22:43:04.348Z,85.80
2018-11-27T22:45:34.820Z,85.90
2018-11-27T22:48:04.144Z,86.00
2018-11-27T22:50:32.923Z,86.00
2018-11-27T22:53:01.631Z,85.60
2018-11-27T22:55:31.686Z,85.50
2018-11-27T22:58:00.291Z,85.80
2018-11-27T23:00:34.729Z,85.80
2018-11-27T23:03:03.353Z,85.60
2018-11-27T23:05:31.969Z,85.40
2018-11-27T23:08:00.579Z,85.60
2018-11-27T23:10:31.224Z,85.30
2018-11-27T23:12:59.959Z,85.40
2018-11-27T23:15:28.569Z,86.00
2018-11-27T23:17:57.401Z,85.50
2018-11-27T23:20:26.253Z,85.30
2018-11-27T23:22:54.879Z,85.10
2018-11-27T23:25:23.706Z,85.00
2018-11-27T23:27:52.332Z,85.20
2018-11-27T23:30:23.465Z,85.50
2018-11-27T23:32:52.330Z,86.00
2018-11-27T23:35:21.231Z,86.00
2018-11-27T23:37:49.933Z,86.10
2018-11-27T23:40:20.476Z,86.00
2018-11-27T23:42:50.425Z,86.20
2018-11-27T23:45:21.903Z,85.80
2018-11-27T23:47:50.794Z,86.00
2018-11-27T23:50:20.304Z,85.50
2018-11-27T23:52:49.201Z,85.30
2018-11-27T23:55:18.569Z,84.90
2018-11-27T23:57:47.677Z,84.70
